sensor_id;sensor_type;location;lat;lon;timestamp;temperature;humidity
24260;DHT22;12384;48.112;18.418;2023-04-24T00:00:40;14.30;40.20
24260;DHT22;12384;48.112;18.418;2023-04-24T00:03:09;14.30;40.20
24260;DHT22;12384;48.112;18.418;2023-04-24T00:05:38;14.20;40.30
24260;DHT22;12384;48.112;18.418;2023-04-24T00:08:09;14.20;40.30
24260;DHT22;12384;48.112;18.418;2023-04-24T00:10:38;14.10;40.70
24260;DHT22;12384;48.112;18.418;2023-04-24T00:13:06;14.10;41.70
24260;DHT22;12384;48.112;18.418;2023-04-24T00:15:35;14.10;41.60
24260;DHT22;12384;48.112;18.418;2023-04-24T00:18:04;14.00;42.70
24260;DHT22;12384;48.112;18.418;2023-04-24T00:20:33;14.00;42.50
24260;DHT22;12384;48.112;18.418;2023-04-24T00:23:02;13.90;42.50
24260;DHT22;12384;48.112;18.418;2023-04-24T00:25:32;13.90;43.10
24260;DHT22;12384;48.112;18.418;2023-04-24T00:28:00;13.80;43.20
24260;DHT22;12384;48.112;18.418;2023-04-24T00:30:29;13.80;43.20
24260;DHT22;12384;48.112;18.418;2023-04-24T00:32:57;13.70;43.60
24260;DHT22;12384;48.112;18.418;2023-04-24T00:35:26;13.70;44.60
24260;DHT22;12384;48.112;18.418;2023-04-24T00:37:54;13.60;44.80
24260;DHT22;12384;48.112;18.418;2023-04-24T00:40:23;13.60;45.10
24260;DHT22;12384;48.112;18.418;2023-04-24T00:42:53;13.50;45.40
24260;DHT22;12384;48.112;18.418;2023-04-24T00:45:21;13.50;45.00
24260;DHT22;12384;48.112;18.418;2023-04-24T00:47:52;13.50;45.30
24260;DHT22;12384;48.112;18.418;2023-04-24T00:50:21;13.50;46.00
24260;DHT22;12384;48.112;18.418;2023-04-24T00:52:50;13.40;45.40
24260;DHT22;12384;48.112;18.418;2023-04-24T00:55:18;13.40;45.60
24260;DHT22;12384;48.112;18.418;2023-04-24T00:57:47;13.30;45.80
24260;DHT22;12384;48.112;18.418;2023-04-24T01:00:18;13.30;46.00
24260;DHT22;12384;48.112;18.418;2023-04-24T01:02:47;13.30;46.30
24260;DHT22;12384;48.112;18.418;2023-04-24T01:05:16;13.30;46.50
24260;DHT22;12384;48.112;18.418;2023-04-24T01:07:46;13.20;46.60
24260;DHT22;12384;48.112;18.418;2023-04-24T01:10:16;13.30;46.50
24260;DHT22;12384;48.112;18.418;2023-04-24T01:12:46;13.30;47.00
24260;DHT22;12384;48.112;18.418;2023-04-24T01:15:14;13.30;47.00
24260;DHT22;12384;48.112;18.418;2023-04-24T01:17:44;13.30;46.80
24260;DHT22;12384;48.112;18.418;2023-04-24T01:20:14;13.30;46.60
24260;DHT22;12384;48.112;18.418;2023-04-24T01:22:44;13.40;46.60
24260;DHT22;12384;48.112;18.418;2023-04-24T01:25:12;13.40;46.50
24260;DHT22;12384;48.112;18.418;2023-04-24T01:27:41;13.40;46.60
24260;DHT22;12384;48.112;18.418;2023-04-24T01:30:12;13.40;46.90
24260;DHT22;12384;48.112;18.418;2023-04-24T01:32:40;13.40;46.70
24260;DHT22;12384;48.112;18.418;2023-04-24T01:35:11;13.40;46.90
24260;DHT22;12384;48.112;18.418;2023-04-24T01:37:40;13.40;47.10
24260;DHT22;12384;48.112;18.418;2023-04-24T01:40:10;13.30;47.40
24260;DHT22;12384;48.112;18.418;2023-04-24T01:42:41;13.30;48.20
24260;DHT22;12384;48.112;18.418;2023-04-24T01:45:11;13.30;47.50
24260;DHT22;12384;48.112;18.418;2023-04-24T01:47:40;13.20;47.60
24260;DHT22;12384;48.112;18.418;2023-04-24T01:50:09;13.20;47.60
24260;DHT22;12384;48.112;18.418;2023-04-24T01:52:38;13.20;47.70
24260;DHT22;12384;48.112;18.418;2023-04-24T01:55:10;13.10;47.90
24260;DHT22;12384;48.112;18.418;2023-04-24T01:57:40;13.10;47.90
24260;DHT22;12384;48.112;18.418;2023-04-24T02:00:09;13.10;47.90
24260;DHT22;12384;48.112;18.418;2023-04-24T02:02:41;13.00;47.90
24260;DHT22;12384;48.112;18.418;2023-04-24T02:05:14;13.00;47.90
24260;DHT22;12384;48.112;18.418;2023-04-24T02:07:42;13.00;47.90
24260;DHT22;12384;48.112;18.418;2023-04-24T02:10:12;12.90;48.20
24260;DHT22;12384;48.112;18.418;2023-04-24T02:12:43;12.90;48.20
24260;DHT22;12384;48.112;18.418;2023-04-24T02:15:12;12.90;48.00
24260;DHT22;12384;48.112;18.418;2023-04-24T02:17:40;12.90;47.90
24260;DHT22;12384;48.112;18.418;2023-04-24T02:20:09;12.90;48.00
24260;DHT22;12384;48.112;18.418;2023-04-24T02:22:38;12.90;48.30
24260;DHT22;12384;48.112;18.418;2023-04-24T02:25:07;12.80;48.50
24260;DHT22;12384;48.112;18.418;2023-04-24T02:27:36;12.80;49.30
24260;DHT22;12384;48.112;18.418;2023-04-24T02:30:06;12.70;49.00
24260;DHT22;12384;48.112;18.418;2023-04-24T02:32:35;12.60;49.10
24260;DHT22;12384;48.112;18.418;2023-04-24T02:35:04;12.60;49.40
24260;DHT22;12384;48.112;18.418;2023-04-24T02:37:33;12.50;49.60
24260;DHT22;12384;48.112;18.418;2023-04-24T02:40:01;12.50;49.80
24260;DHT22;12384;48.112;18.418;2023-04-24T02:42:30;12.40;49.90
24260;DHT22;12384;48.112;18.418;2023-04-24T02:45:00;12.40;50.20
24260;DHT22;12384;48.112;18.418;2023-04-24T02:47:29;12.40;50.30
24260;DHT22;12384;48.112;18.418;2023-04-24T02:49:59;12.40;50.60
24260;DHT22;12384;48.112;18.418;2023-04-24T02:52:27;12.30;50.60
24260;DHT22;12384;48.112;18.418;2023-04-24T02:54:56;12.30;50.80
24260;DHT22;12384;48.112;18.418;2023-04-24T02:57:24;12.30;51.00
24260;DHT22;12384;48.112;18.418;2023-04-24T02:59:53;12.20;51.20
24260;DHT22;12384;48.112;18.418;2023-04-24T03:02:23;12.20;51.40
24260;DHT22;12384;48.112;18.418;2023-04-24T03:04:51;12.20;51.60
24260;DHT22;12384;48.112;18.418;2023-04-24T03:07:20;12.20;51.70
24260;DHT22;12384;48.112;18.418;2023-04-24T03:09:48;12.20;51.80
24260;DHT22;12384;48.112;18.418;2023-04-24T03:12:17;12.10;52.00
24260;DHT22;12384;48.112;18.418;2023-04-24T03:14:46;12.10;52.00
24260;DHT22;12384;48.112;18.418;2023-04-24T03:17:14;12.10;52.10
24260;DHT22;12384;48.112;18.418;2023-04-24T03:19:44;12.10;52.70
24260;DHT22;12384;48.112;18.418;2023-04-24T03:22:13;12.10;52.10
24260;DHT22;12384;48.112;18.418;2023-04-24T03:24:42;12.10;52.20
24260;DHT22;12384;48.112;18.418;2023-04-24T03:27:12;12.00;52.10
24260;DHT22;12384;48.112;18.418;2023-04-24T03:29:53;12.00;52.00
24260;DHT22;12384;48.112;18.418;2023-04-24T03:32:41;12.00;52.00
24260;DHT22;12384;48.112;18.418;2023-04-24T03:35:14;12.00;51.90
24260;DHT22;12384;48.112;18.418;2023-04-24T03:37:42;12.00;52.00
24260;DHT22;12384;48.112;18.418;2023-04-24T03:40:29;12.00;52.00
24260;DHT22;12384;48.112;18.418;2023-04-24T03:42:58;12.00;52.00
24260;DHT22;12384;48.112;18.418;2023-04-24T03:45:27;12.10;52.00
24260;DHT22;12384;48.112;18.418;2023-04-24T03:47:56;12.00;51.90
24260;DHT22;12384;48.112;18.418;2023-04-24T03:50:26;12.00;52.00
24260;DHT22;12384;48.112;18.418;2023-04-24T03:52:56;12.00;52.00
24260;DHT22;12384;48.112;18.418;2023-04-24T03:55:38;12.00;52.10
24260;DHT22;12384;48.112;18.418;2023-04-24T03:58:08;12.00;52.00
24260;DHT22;12384;48.112;18.418;2023-04-24T04:00:38;12.00;52.00
24260;DHT22;12384;48.112;18.418;2023-04-24T04:03:43;12.00;52.10
24260;DHT22;12384;48.112;18.418;2023-04-24T04:06:16;12.00;52.20
24260;DHT22;12384;48.112;18.418;2023-04-24T04:08:46;12.00;52.40
24260;DHT22;12384;48.112;18.418;2023-04-24T04:11:15;12.00;52.50
24260;DHT22;12384;48.112;18.418;2023-04-24T04:13:45;11.90;52.40
24260;DHT22;12384;48.112;18.418;2023-04-24T04:16:18;11.90;52.50
24260;DHT22;12384;48.112;18.418;2023-04-24T04:18:49;11.90;52.60
24260;DHT22;12384;48.112;18.418;2023-04-24T04:21:19;11.90;52.70
24260;DHT22;12384;48.112;18.418;2023-04-24T04:23:56;11.90;52.80
24260;DHT22;12384;48.112;18.418;2023-04-24T04:26:33;11.90;52.80
24260;DHT22;12384;48.112;18.418;2023-04-24T04:29:04;11.90;52.80
24260;DHT22;12384;48.112;18.418;2023-04-24T04:31:37;11.90;52.80
24260;DHT22;12384;48.112;18.418;2023-04-24T04:34:10;11.90;52.90
24260;DHT22;12384;48.112;18.418;2023-04-24T04:36:42;11.90;52.90
24260;DHT22;12384;48.112;18.418;2023-04-24T04:39:31;11.90;52.90
24260;DHT22;12384;48.112;18.418;2023-04-24T04:42:06;11.90;52.90
24260;DHT22;12384;48.112;18.418;2023-04-24T04:44:39;11.90;52.90
24260;DHT22;12384;48.112;18.418;2023-04-24T04:47:12;12.00;53.00
24260;DHT22;12384;48.112;18.418;2023-04-24T04:49:41;12.00;53.10
24260;DHT22;12384;48.112;18.418;2023-04-24T04:52:22;12.00;53.10
24260;DHT22;12384;48.112;18.418;2023-04-24T04:54:58;12.00;53.00
24260;DHT22;12384;48.112;18.418;2023-04-24T04:57:47;12.10;53.10
24260;DHT22;12384;48.112;18.418;2023-04-24T05:00:16;12.00;53.00
24260;DHT22;12384;48.112;18.418;2023-04-24T05:02:50;12.10;53.00
24260;DHT22;12384;48.112;18.418;2023-04-24T05:05:19;12.10;53.00
24260;DHT22;12384;48.112;18.418;2023-04-24T05:07:50;12.10;53.00
24260;DHT22;12384;48.112;18.418;2023-04-24T05:10:18;12.20;52.90
24260;DHT22;12384;48.112;18.418;2023-04-24T05:12:48;12.20;52.80
24260;DHT22;12384;48.112;18.418;2023-04-24T05:15:16;12.20;52.80
24260;DHT22;12384;48.112;18.418;2023-04-24T05:17:45;12.30;52.80
24260;DHT22;12384;48.112;18.418;2023-04-24T05:20:13;12.30;52.60
24260;DHT22;12384;48.112;18.418;2023-04-24T05:22:42;12.40;52.60
24260;DHT22;12384;48.112;18.418;2023-04-24T05:25:15;12.40;52.50
24260;DHT22;12384;48.112;18.418;2023-04-24T05:27:51;12.50;52.60
24260;DHT22;12384;48.112;18.418;2023-04-24T05:30:21;12.50;52.60
24260;DHT22;12384;48.112;18.418;2023-04-24T05:32:50;12.60;52.60
24260;DHT22;12384;48.112;18.418;2023-04-24T05:35:19;12.70;52.40
24260;DHT22;12384;48.112;18.418;2023-04-24T05:37:48;12.70;52.30
24260;DHT22;12384;48.112;18.418;2023-04-24T05:40:18;12.80;52.40
24260;DHT22;12384;48.112;18.418;2023-04-24T05:42:47;12.90;52.30
24260;DHT22;12384;48.112;18.418;2023-04-24T05:45:16;12.90;52.10
24260;DHT22;12384;48.112;18.418;2023-04-24T05:47:45;13.00;52.20
24260;DHT22;12384;48.112;18.418;2023-04-24T05:50:13;13.10;52.20
24260;DHT22;12384;48.112;18.418;2023-04-24T05:52:42;13.20;52.30
24260;DHT22;12384;48.112;18.418;2023-04-24T05:55:24;13.30;52.20
24260;DHT22;12384;48.112;18.418;2023-04-24T05:57:53;13.50;52.20
24260;DHT22;12384;48.112;18.418;2023-04-24T06:00:24;13.60;52.30
24260;DHT22;12384;48.112;18.418;2023-04-24T06:03:00;13.80;52.40
24260;DHT22;12384;48.112;18.418;2023-04-24T06:05:31;14.10;52.40
24260;DHT22;12384;48.112;18.418;2023-04-24T06:08:02;14.50;52.10
24260;DHT22;12384;48.112;18.418;2023-04-24T06:10:36;14.70;51.40
24260;DHT22;12384;48.112;18.418;2023-04-24T06:13:07;14.90;50.70
24260;DHT22;12384;48.112;18.418;2023-04-24T06:15:38;15.00;50.00
24260;DHT22;12384;48.112;18.418;2023-04-24T06:18:11;15.10;50.00
24260;DHT22;12384;48.112;18.418;2023-04-24T06:20:41;15.30;50.20
24260;DHT22;12384;48.112;18.418;2023-04-24T06:23:10;15.60;50.00
24260;DHT22;12384;48.112;18.418;2023-04-24T06:25:39;15.90;50.10
24260;DHT22;12384;48.112;18.418;2023-04-24T06:28:12;16.30;49.90
24260;DHT22;12384;48.112;18.418;2023-04-24T06:30:40;16.70;49.60
24260;DHT22;12384;48.112;18.418;2023-04-24T06:33:11;17.00;48.20
24260;DHT22;12384;48.112;18.418;2023-04-24T06:35:45;17.20;47.30
24260;DHT22;12384;48.112;18.418;2023-04-24T06:38:13;17.50;47.00
24260;DHT22;12384;48.112;18.418;2023-04-24T06:40:45;17.80;46.90
24260;DHT22;12384;48.112;18.418;2023-04-24T06:43:13;18.10;46.10
24260;DHT22;12384;48.112;18.418;2023-04-24T06:45:42;18.20;45.40
24260;DHT22;12384;48.112;18.418;2023-04-24T06:48:12;18.40;44.80
24260;DHT22;12384;48.112;18.418;2023-04-24T06:50:40;18.40;44.40
24260;DHT22;12384;48.112;18.418;2023-04-24T06:53:09;18.50;44.50
24260;DHT22;12384;48.112;18.418;2023-04-24T06:55:40;18.60;44.10
24260;DHT22;12384;48.112;18.418;2023-04-24T06:58:12;18.70;43.90
24260;DHT22;12384;48.112;18.418;2023-04-24T07:00:41;18.70;43.70
24260;DHT22;12384;48.112;18.418;2023-04-24T07:03:09;18.70;43.50
24260;DHT22;12384;48.112;18.418;2023-04-24T07:05:38;18.40;43.50
24260;DHT22;12384;48.112;18.418;2023-04-24T07:08:07;18.30;43.70
24260;DHT22;12384;48.112;18.418;2023-04-24T07:10:38;18.00;44.00
24260;DHT22;12384;48.112;18.418;2023-04-24T07:13:07;17.80;44.40
24260;DHT22;12384;48.112;18.418;2023-04-24T07:15:37;17.60;44.80
24260;DHT22;12384;48.112;18.418;2023-04-24T07:18:06;17.40;45.30
24260;DHT22;12384;48.112;18.418;2023-04-24T07:20:35;17.20;45.80
24260;DHT22;12384;48.112;18.418;2023-04-24T07:23:04;17.00;46.10
24260;DHT22;12384;48.112;18.418;2023-04-24T07:25:32;16.90;46.70
24260;DHT22;12384;48.112;18.418;2023-04-24T07:28:01;16.80;47.00
24260;DHT22;12384;48.112;18.418;2023-04-24T07:30:30;16.70;47.30
24260;DHT22;12384;48.112;18.418;2023-04-24T07:33:01;16.70;47.80
24260;DHT22;12384;48.112;18.418;2023-04-24T07:35:29;16.70;48.20
24260;DHT22;12384;48.112;18.418;2023-04-24T07:37:58;16.60;48.30
24260;DHT22;12384;48.112;18.418;2023-04-24T07:40:27;16.60;48.50
24260;DHT22;12384;48.112;18.418;2023-04-24T07:42:55;16.60;48.80
24260;DHT22;12384;48.112;18.418;2023-04-24T07:45:23;16.60;48.80
24260;DHT22;12384;48.112;18.418;2023-04-24T07:47:53;16.70;49.00
24260;DHT22;12384;48.112;18.418;2023-04-24T07:50:23;16.70;48.90
24260;DHT22;12384;48.112;18.418;2023-04-24T07:52:51;16.80;49.10
24260;DHT22;12384;48.112;18.418;2023-04-24T07:55:20;16.80;49.00
24260;DHT22;12384;48.112;18.418;2023-04-24T07:57:52;16.80;49.00
24260;DHT22;12384;48.112;18.418;2023-04-24T08:00:21;16.80;49.10
24260;DHT22;12384;48.112;18.418;2023-04-24T08:02:49;16.90;49.20
24260;DHT22;12384;48.112;18.418;2023-04-24T08:05:18;16.90;49.10
24260;DHT22;12384;48.112;18.418;2023-04-24T08:07:48;16.90;49.20
24260;DHT22;12384;48.112;18.418;2023-04-24T08:10:17;16.90;49.30
24260;DHT22;12384;48.112;18.418;2023-04-24T08:12:45;17.00;49.80
24260;DHT22;12384;48.112;18.418;2023-04-24T08:15:14;17.00;49.20
24260;DHT22;12384;48.112;18.418;2023-04-24T08:17:43;17.10;49.40
24260;DHT22;12384;48.112;18.418;2023-04-24T08:20:12;17.10;49.40
24260;DHT22;12384;48.112;18.418;2023-04-24T08:22:42;17.20;49.40
24260;DHT22;12384;48.112;18.418;2023-04-24T08:25:15;17.30;49.30
24260;DHT22;12384;48.112;18.418;2023-04-24T08:27:45;17.40;49.00
24260;DHT22;12384;48.112;18.418;2023-04-24T08:30:13;17.50;48.70
24260;DHT22;12384;48.112;18.418;2023-04-24T08:32:42;17.60;48.50
24260;DHT22;12384;48.112;18.418;2023-04-24T08:35:10;17.70;48.50
24260;DHT22;12384;48.112;18.418;2023-04-24T08:37:39;17.70;48.30
24260;DHT22;12384;48.112;18.418;2023-04-24T08:40:13;17.80;48.40
24260;DHT22;12384;48.112;18.418;2023-04-24T08:42:44;17.90;48.30
24260;DHT22;12384;48.112;18.418;2023-04-24T08:45:13;18.10;48.40
24260;DHT22;12384;48.112;18.418;2023-04-24T08:47:41;18.20;48.20
24260;DHT22;12384;48.112;18.418;2023-04-24T08:50:11;18.40;48.00
24260;DHT22;12384;48.112;18.418;2023-04-24T08:52:41;18.70;48.10
24260;DHT22;12384;48.112;18.418;2023-04-24T08:55:10;18.90;48.00
24260;DHT22;12384;48.112;18.418;2023-04-24T08:57:39;19.10;47.90
24260;DHT22;12384;48.112;18.418;2023-04-24T09:00:10;19.40;47.30
24260;DHT22;12384;48.112;18.418;2023-04-24T09:02:42;19.70;47.10
24260;DHT22;12384;48.112;18.418;2023-04-24T09:05:13;19.90;46.40
24260;DHT22;12384;48.112;18.418;2023-04-24T09:07:44;20.10;46.00
24260;DHT22;12384;48.112;18.418;2023-04-24T09:10:13;20.30;45.20
24260;DHT22;12384;48.112;18.418;2023-04-24T09:12:42;20.40;44.70
24260;DHT22;12384;48.112;18.418;2023-04-24T09:15:13;20.50;44.40
24260;DHT22;12384;48.112;18.418;2023-04-24T09:17:43;20.60;44.40
24260;DHT22;12384;48.112;18.418;2023-04-24T09:20:12;20.60;44.30
24260;DHT22;12384;48.112;18.418;2023-04-24T09:22:42;20.60;44.20
24260;DHT22;12384;48.112;18.418;2023-04-24T09:25:11;20.70;44.40
24260;DHT22;12384;48.112;18.418;2023-04-24T09:27:42;20.70;44.40
24260;DHT22;12384;48.112;18.418;2023-04-24T09:30:13;20.80;44.20
24260;DHT22;12384;48.112;18.418;2023-04-24T09:32:49;20.70;43.80
24260;DHT22;12384;48.112;18.418;2023-04-24T09:35:17;20.60;43.70
24260;DHT22;12384;48.112;18.418;2023-04-24T09:37:46;20.70;44.10
24260;DHT22;12384;48.112;18.418;2023-04-24T09:40:17;20.70;44.10
24260;DHT22;12384;48.112;18.418;2023-04-24T09:42:51;20.70;44.00
24260;DHT22;12384;48.112;18.418;2023-04-24T09:45:21;20.60;43.60
24260;DHT22;12384;48.112;18.418;2023-04-24T09:47:52;20.60;43.20
24260;DHT22;12384;48.112;18.418;2023-04-24T09:50:22;20.50;43.30
24260;DHT22;12384;48.112;18.418;2023-04-24T09:52:57;20.40;43.40
24260;DHT22;12384;48.112;18.418;2023-04-24T09:55:25;20.30;43.30
24260;DHT22;12384;48.112;18.418;2023-04-24T09:57:56;20.20;43.30
24260;DHT22;12384;48.112;18.418;2023-04-24T10:00:29;20.00;43.60
24260;DHT22;12384;48.112;18.418;2023-04-24T10:02:59;19.90;43.70
24260;DHT22;12384;48.112;18.418;2023-04-24T10:05:30;19.80;43.70
24260;DHT22;12384;48.112;18.418;2023-04-24T10:08:03;19.70;44.00
24260;DHT22;12384;48.112;18.418;2023-04-24T10:10:33;19.50;44.00
24260;DHT22;12384;48.112;18.418;2023-04-24T10:13:02;19.40;44.10
24260;DHT22;12384;48.112;18.418;2023-04-24T10:15:33;19.30;44.30
24260;DHT22;12384;48.112;18.418;2023-04-24T10:18:04;19.10;44.40
24260;DHT22;12384;48.112;18.418;2023-04-24T10:20:36;19.00;44.50
24260;DHT22;12384;48.112;18.418;2023-04-24T10:23:06;18.80;44.90
24260;DHT22;12384;48.112;18.418;2023-04-24T10:25:36;18.70;45.20
24260;DHT22;12384;48.112;18.418;2023-04-24T10:28:05;18.50;45.30
24260;DHT22;12384;48.112;18.418;2023-04-24T10:30:39;18.40;45.60
24260;DHT22;12384;48.112;18.418;2023-04-24T10:33:11;18.30;45.80
24260;DHT22;12384;48.112;18.418;2023-04-24T10:35:42;18.20;46.00
24260;DHT22;12384;48.112;18.418;2023-04-24T10:38:14;18.20;46.40
24260;DHT22;12384;48.112;18.418;2023-04-24T10:40:44;18.10;47.20
24260;DHT22;12384;48.112;18.418;2023-04-24T10:43:16;18.00;47.50
24260;DHT22;12384;48.112;18.418;2023-04-24T10:48:44;18.00;47.60
24260;DHT22;12384;48.112;18.418;2023-04-24T10:51:22;18.10;48.20
24260;DHT22;12384;48.112;18.418;2023-04-24T10:53:51;18.10;48.30
24260;DHT22;12384;48.112;18.418;2023-04-24T10:56:21;18.20;48.80
24260;DHT22;12384;48.112;18.418;2023-04-24T10:58:51;18.20;49.10
24260;DHT22;12384;48.112;18.418;2023-04-24T11:01:25;18.20;49.60
24260;DHT22;12384;48.112;18.418;2023-04-24T11:03:57;18.30;49.40
24260;DHT22;12384;48.112;18.418;2023-04-24T11:06:29;18.30;49.60
24260;DHT22;12384;48.112;18.418;2023-04-24T11:09:03;18.30;49.60
24260;DHT22;12384;48.112;18.418;2023-04-24T11:11:34;18.20;49.40
24260;DHT22;12384;48.112;18.418;2023-04-24T11:14:05;18.20;49.50
24260;DHT22;12384;48.112;18.418;2023-04-24T11:16:37;18.20;50.20
24260;DHT22;12384;48.112;18.418;2023-04-24T11:19:09;18.20;50.80
24260;DHT22;12384;48.112;18.418;2023-04-24T11:21:42;18.20;50.60
24260;DHT22;12384;48.112;18.418;2023-04-24T11:24:28;18.20;50.80
24260;DHT22;12384;48.112;18.418;2023-04-24T11:27:04;18.20;51.10
24260;DHT22;12384;48.112;18.418;2023-04-24T11:29:41;18.20;51.00
24260;DHT22;12384;48.112;18.418;2023-04-24T11:32:27;18.20;51.00
24260;DHT22;12384;48.112;18.418;2023-04-24T11:34:58;18.20;51.20
24260;DHT22;12384;48.112;18.418;2023-04-24T11:37:28;18.20;51.40
24260;DHT22;12384;48.112;18.418;2023-04-24T11:39:58;18.20;51.50
24260;DHT22;12384;48.112;18.418;2023-04-24T11:42:28;18.20;51.20
24260;DHT22;12384;48.112;18.418;2023-04-24T11:44:56;18.20;51.20
24260;DHT22;12384;48.112;18.418;2023-04-24T11:47:28;18.20;51.10
24260;DHT22;12384;48.112;18.418;2023-04-24T11:49:58;18.30;51.50
24260;DHT22;12384;48.112;18.418;2023-04-24T11:52:28;18.30;51.30
24260;DHT22;12384;48.112;18.418;2023-04-24T11:54:57;18.40;51.20
24260;DHT22;12384;48.112;18.418;2023-04-24T11:57:26;18.40;50.80
24260;DHT22;12384;48.112;18.418;2023-04-24T12:00:00;18.50;50.50
24260;DHT22;12384;48.112;18.418;2023-04-24T12:02:38;18.60;50.50
24260;DHT22;12384;48.112;18.418;2023-04-24T12:05:08;18.60;49.90
24260;DHT22;12384;48.112;18.418;2023-04-24T12:07:41;18.60;49.80
24260;DHT22;12384;48.112;18.418;2023-04-24T12:10:10;18.70;49.70
24260;DHT22;12384;48.112;18.418;2023-04-24T12:12:39;18.60;49.30
24260;DHT22;12384;48.112;18.418;2023-04-24T12:15:08;18.60;49.30
24260;DHT22;12384;48.112;18.418;2023-04-24T12:17:41;18.60;49.40
24260;DHT22;12384;48.112;18.418;2023-04-24T12:20:13;18.60;49.40
24260;DHT22;12384;48.112;18.418;2023-04-24T12:22:46;18.60;49.40
24260;DHT22;12384;48.112;18.418;2023-04-24T12:25:16;18.70;49.50
24260;DHT22;12384;48.112;18.418;2023-04-24T12:27:45;18.70;49.40
24260;DHT22;12384;48.112;18.418;2023-04-24T12:30:16;18.70;49.50
24260;DHT22;12384;48.112;18.418;2023-04-24T12:32:46;18.60;49.40
24260;DHT22;12384;48.112;18.418;2023-04-24T12:35:21;18.60;49.50
24260;DHT22;12384;48.112;18.418;2023-04-24T12:37:50;18.60;49.50
24260;DHT22;12384;48.112;18.418;2023-04-24T12:40:20;18.50;49.50
24260;DHT22;12384;48.112;18.418;2023-04-24T12:42:51;18.40;49.60
24260;DHT22;12384;48.112;18.418;2023-04-24T12:45:21;18.30;49.70
24260;DHT22;12384;48.112;18.418;2023-04-24T12:47:52;18.20;49.70
24260;DHT22;12384;48.112;18.418;2023-04-24T12:50:22;18.20;49.90
24260;DHT22;12384;48.112;18.418;2023-04-24T12:52:50;18.10;50.00
24260;DHT22;12384;48.112;18.418;2023-04-24T12:55:19;18.00;50.20
24260;DHT22;12384;48.112;18.418;2023-04-24T12:57:47;17.90;50.50
24260;DHT22;12384;48.112;18.418;2023-04-24T13:00:16;17.90;50.80
24260;DHT22;12384;48.112;18.418;2023-04-24T13:02:46;17.80;51.10
24260;DHT22;12384;48.112;18.418;2023-04-24T13:05:15;17.80;51.30
24260;DHT22;12384;48.112;18.418;2023-04-24T13:07:45;17.70;51.30
24260;DHT22;12384;48.112;18.418;2023-04-24T13:10:14;17.70;51.40
24260;DHT22;12384;48.112;18.418;2023-04-24T13:12:42;17.70;51.50
24260;DHT22;12384;48.112;18.418;2023-04-24T13:15:12;17.60;51.40
24260;DHT22;12384;48.112;18.418;2023-04-24T13:17:41;17.50;52.00
24260;DHT22;12384;48.112;18.418;2023-04-24T13:20:10;17.40;51.30
24260;DHT22;12384;48.112;18.418;2023-04-24T13:22:38;17.40;51.50
24260;DHT22;12384;48.112;18.418;2023-04-24T13:25:08;17.30;51.60
24260;DHT22;12384;48.112;18.418;2023-04-24T13:27:38;17.30;52.00
24260;DHT22;12384;48.112;18.418;2023-04-24T13:30:08;17.20;51.90
24260;DHT22;12384;48.112;18.418;2023-04-24T13:32:36;17.20;52.70
24260;DHT22;12384;48.112;18.418;2023-04-24T13:35:05;17.20;52.30
24260;DHT22;12384;48.112;18.418;2023-04-24T13:37:34;17.10;52.30
24260;DHT22;12384;48.112;18.418;2023-04-24T13:40:02;17.10;52.50
24260;DHT22;12384;48.112;18.418;2023-04-24T13:42:34;17.00;52.70
24260;DHT22;12384;48.112;18.418;2023-04-24T13:45:03;17.00;52.70
24260;DHT22;12384;48.112;18.418;2023-04-24T13:47:51;17.00;52.80
24260;DHT22;12384;48.112;18.418;2023-04-24T13:50:21;17.00;53.00
24260;DHT22;12384;48.112;18.418;2023-04-24T13:52:50;16.90;53.00
24260;DHT22;12384;48.112;18.418;2023-04-24T13:55:18;16.90;53.10
24260;DHT22;12384;48.112;18.418;2023-04-24T13:57:49;16.80;53.20
24260;DHT22;12384;48.112;18.418;2023-04-24T14:00:19;16.80;53.40
24260;DHT22;12384;48.112;18.418;2023-04-24T14:02:48;16.70;53.50
24260;DHT22;12384;48.112;18.418;2023-04-24T14:05:17;16.70;53.60
24260;DHT22;12384;48.112;18.418;2023-04-24T14:07:45;16.60;53.60
24260;DHT22;12384;48.112;18.418;2023-04-24T14:10:14;16.60;53.70
24260;DHT22;12384;48.112;18.418;2023-04-24T14:12:42;16.60;53.80
24260;DHT22;12384;48.112;18.418;2023-04-24T14:15:12;16.50;53.80
24260;DHT22;12384;48.112;18.418;2023-04-24T14:17:41;16.40;54.00
24260;DHT22;12384;48.112;18.418;2023-04-24T14:20:10;16.40;54.10
24260;DHT22;12384;48.112;18.418;2023-04-24T14:22:38;16.30;54.40
24260;DHT22;12384;48.112;18.418;2023-04-24T14:25:08;16.30;54.60
24260;DHT22;12384;48.112;18.418;2023-04-24T14:27:36;16.30;54.80
24260;DHT22;12384;48.112;18.418;2023-04-24T14:30:05;16.30;54.90
24260;DHT22;12384;48.112;18.418;2023-04-24T14:32:35;16.20;55.00
24260;DHT22;12384;48.112;18.418;2023-04-24T14:35:05;16.30;55.30
24260;DHT22;12384;48.112;18.418;2023-04-24T14:37:33;16.30;55.40
24260;DHT22;12384;48.112;18.418;2023-04-24T14:40:03;16.20;55.40
24260;DHT22;12384;48.112;18.418;2023-04-24T14:42:37;16.20;55.40
24260;DHT22;12384;48.112;18.418;2023-04-24T14:45:06;16.20;55.50
24260;DHT22;12384;48.112;18.418;2023-04-24T14:47:37;16.10;55.60
24260;DHT22;12384;48.112;18.418;2023-04-24T14:50:07;16.10;55.80
24260;DHT22;12384;48.112;18.418;2023-04-24T14:52:36;16.00;56.00
24260;DHT22;12384;48.112;18.418;2023-04-24T14:55:05;16.00;56.20
24260;DHT22;12384;48.112;18.418;2023-04-24T14:57:34;15.90;56.30
24260;DHT22;12384;48.112;18.418;2023-04-24T15:00:03;15.90;56.60
24260;DHT22;12384;48.112;18.418;2023-04-24T15:02:33;15.80;56.80
24260;DHT22;12384;48.112;18.418;2023-04-24T15:05:06;15.80;56.80
24260;DHT22;12384;48.112;18.418;2023-04-24T15:07:35;15.70;56.90
24260;DHT22;12384;48.112;18.418;2023-04-24T15:10:05;15.70;57.00
24260;DHT22;12384;48.112;18.418;2023-04-24T15:12:33;15.60;57.10
24260;DHT22;12384;48.112;18.418;2023-04-24T15:15:02;15.60;57.30
24260;DHT22;12384;48.112;18.418;2023-04-24T15:17:30;15.60;57.30
24260;DHT22;12384;48.112;18.418;2023-04-24T15:19:59;15.50;57.40
24260;DHT22;12384;48.112;18.418;2023-04-24T15:22:31;15.50;57.50
24260;DHT22;12384;48.112;18.418;2023-04-24T15:24:59;15.40;57.60
24260;DHT22;12384;48.112;18.418;2023-04-24T15:27:39;15.40;57.80
24260;DHT22;12384;48.112;18.418;2023-04-24T15:30:09;15.30;58.00
24260;DHT22;12384;48.112;18.418;2023-04-24T15:32:38;15.20;58.10
24260;DHT22;12384;48.112;18.418;2023-04-24T15:35:08;15.10;58.20
24260;DHT22;12384;48.112;18.418;2023-04-24T15:37:38;15.10;58.50